createdAt,value
2018-08-22T00:02:12.255Z,70.25
2018-08-22T00:04:41.566Z,70.08
2018-08-22T00:07:10.853Z,70.11
2018-08-22T00:09:40.098Z,69.72
2018-08-22T00:12:09.397Z,69.95
2018-08-22T00:14:38.676Z,69.67
2018-08-22T00:17:08.086Z,70.11
2018-08-22T00:19:37.356Z,70.28
2018-08-22T00:22:06.701Z,70.03
2018-08-22T00:27:20.515Z,70.80
2018-08-22T00:29:50.087Z,71.41
2018-08-22T00:32:19.359Z,71.13
2018-08-22T00:34:48.693Z,71.32
2018-08-22T00:37:17.977Z,70.72
2018-08-22T00:39:47.282Z,71.68
2018-08-22T00:42:16.533Z,71.65
2018-08-22T00:44:45.785Z,71.82
2018-08-22T00:47:15.037Z,72.16
2018-08-22T00:49:44.318Z,72.03
2018-08-22T00:52:13.568Z,72.42
2018-08-22T00:54:42.867Z,72.93
2018-08-22T00:57:12.129Z,73.52
2018-08-22T00:59:41.381Z,73.85
2018-08-22T01:02:10.718Z,74.14
2018-08-22T01:04:40.037Z,73.98
2018-08-22T01:07:09.293Z,74.14
2018-08-22T01:09:38.583Z,73.93
2018-08-22T01:12:07.874Z,74.74
2018-08-22T01:14:37.175Z,74.78
2018-08-22T01:17:06.542Z,74.91
2018-08-22T01:19:35.820Z,74.83
2018-08-22T01:22:05.067Z,74.36
2018-08-22T01:24:34.388Z,74.19
2018-08-22T01:27:03.968Z,73.81
2018-08-22T01:29:33.262Z,74.10
2018-08-22T01:32:02.663Z,74.07
2018-08-22T01:34:31.969Z,73.30
2018-08-22T01:37:01.274Z,74.12
2018-08-22T01:39:30.568Z,74.40
2018-08-22T01:41:59.830Z,74.08
2018-08-22T01:44:29.131Z,74.41
2018-08-22T01:46:58.383Z,74.89
2018-08-22T01:49:27.722Z,74.85
2018-08-22T01:51:57.066Z,75.47
2018-08-22T01:54:26.359Z,74.50
2018-08-22T01:56:55.762Z,75.79
2018-08-22T01:59:25.048Z,75.85
2018-08-22T02:01:54.389Z,75.87
2018-08-22T02:04:23.656Z,75.78
2018-08-22T02:06:52.906Z,75.66
2018-08-22T02:09:22.172Z,75.63
2018-08-22T02:11:51.426Z,75.76
2018-08-22T02:14:20.726Z,75.40
2018-08-22T02:16:50.101Z,76.23
2018-08-22T02:19:19.391Z,76.32
2018-08-22T02:21:48.665Z,76.61
2018-08-22T02:24:17.956Z,77.05
2018-08-22T02:26:47.267Z,76.82
2018-08-22T02:29:16.590Z,77.19
2018-08-22T02:31:45.862Z,77.40
2018-08-22T02:34:15.236Z,77.43
2018-08-22T02:36:44.523Z,77.57
2018-08-22T02:39:13.821Z,77.31
2018-08-22T02:41:49.694Z,76.93
2018-08-22T02:44:18.997Z,77.48
2018-08-22T02:46:48.296Z,78.04
2018-08-22T02:49:17.567Z,77.57
2018-08-22T02:51:46.866Z,76.98
2018-08-22T02:54:16.144Z,77.63
2018-08-22T02:56:45.410Z,76.93
2018-08-22T02:59:14.676Z,77.14
2018-08-22T03:01:43.953Z,77.34
2018-08-22T03:04:13.217Z,77.20
2018-08-22T03:06:42.493Z,78.11
2018-08-22T03:09:11.770Z,78.92
2018-08-22T03:11:41.058Z,78.51
2018-08-22T03:14:10.413Z,77.64
2018-08-22T03:16:39.720Z,78.00
2018-08-22T03:19:08.977Z,78.38
2018-08-22T03:21:38.270Z,78.95
2018-08-22T03:24:07.583Z,79.36
2018-08-22T03:26:36.967Z,79.87
2018-08-22T03:29:06.270Z,79.53
2018-08-22T03:31:35.568Z,79.71
2018-08-22T03:34:05.035Z,79.58
2018-08-22T03:36:34.345Z,79.65
2018-08-22T03:39:03.895Z,79.87
2018-08-22T03:41:32.978Z,79.34
2018-08-22T03:44:02.294Z,79.38
2018-08-22T03:46:31.623Z,79.94
2018-08-22T03:49:00.922Z,79.99
2018-08-22T03:51:30.231Z,79.87
2018-08-22T03:53:59.515Z,80.54
2018-08-22T03:56:28.786Z,81.17
2018-08-22T03:58:58.075Z,80.83
2018-08-22T04:01:27.371Z,81.18
2018-08-22T04:03:56.646Z,81.15
2018-08-22T04:06:25.970Z,80.94
2018-08-22T04:08:55.273Z,80.59
2018-08-22T04:11:24.574Z,81.08
2018-08-22T04:13:53.842Z,81.08
2018-08-22T04:16:23.130Z,81.39
2018-08-22T04:18:52.458Z,80.89
2018-08-22T04:21:21.756Z,80.57
2018-08-22T04:23:51.066Z,81.26
2018-08-22T04:26:20.428Z,81.08
2018-08-22T04:28:49.754Z,81.97
2018-08-22T04:31:19.035Z,81.72
2018-08-22T04:33:48.369Z,81.44
2018-08-22T04:36:17.623Z,81.79
2018-08-22T04:38:47.047Z,81.88
2018-08-22T04:41:16.318Z,81.87
2018-08-22T04:43:45.673Z,81.18
2018-08-22T04:46:14.933Z,81.27
2018-08-22T04:48:44.268Z,81.10
2018-08-22T04:51:13.568Z,81.25
2018-08-22T04:53:42.846Z,80.94
2018-08-22T04:56:12.436Z,80.90
2018-08-22T04:58:41.792Z,80.88
2018-08-22T05:01:11.257Z,80.75
2018-08-22T05:03:40.593Z,80.90
2018-08-22T05:06:09.941Z,80.60
2018-08-22T05:08:39.398Z,79.87
2018-08-22T05:11:08.715Z,79.81
2018-08-22T05:13:38.398Z,79.58
2018-08-22T05:16:07.672Z,79.33
2018-08-22T05:18:36.998Z,78.72
2018-08-22T05:21:06.401Z,78.83
2018-08-22T05:23:35.706Z,78.43
2018-08-22T05:26:05.018Z,77.91
2018-08-22T05:28:34.358Z,77.78
2018-08-22T05:31:03.670Z,77.30
2018-08-22T05:33:33.022Z,77.62
2018-08-22T05:36:02.370Z,77.24
2018-08-22T05:38:31.772Z,76.81
2018-08-22T05:41:01.036Z,76.03
2018-08-22T05:43:30.351Z,75.17
2018-08-22T05:45:59.662Z,75.45
2018-08-22T05:48:29.007Z,75.10
2018-08-22T05:50:58.326Z,74.25
2018-08-22T05:53:27.668Z,73.79
2018-08-22T05:55:56.966Z,71.14
2018-08-22T05:58:26.319Z,69.26
2018-08-22T06:00:55.738Z,68.54
2018-08-22T06:03:25.181Z,67.85
2018-08-22T06:05:54.577Z,66.46
2018-08-22T06:08:23.816Z,66.66
2018-08-22T06:10:53.185Z,65.42
2018-08-22T06:13:22.502Z,64.84
2018-08-22T06:15:51.902Z,64.76
2018-08-22T06:18:21.291Z,64.71
2018-08-22T06:20:50.606Z,64.55
2018-08-22T06:23:20.284Z,64.36
2018-08-22T06:25:49.585Z,63.98
2018-08-22T06:28:19.420Z,63.25
2018-08-22T06:30:48.690Z,62.95
2018-08-22T06:33:17.759Z,63.87
2018-08-22T06:35:47.114Z,63.22
2018-08-22T06:38:16.386Z,62.07
2018-08-22T06:40:45.698Z,61.60
2018-08-22T06:43:15.114Z,61.51
2018-08-22T06:45:44.390Z,61.29
2018-08-22T06:48:13.731Z,60.65
2018-08-22T06:50:43.169Z,60.73
2018-08-22T06:53:12.421Z,60.17
2018-08-22T06:55:41.737Z,59.90
2018-08-22T06:58:11.116Z,59.00
2018-08-22T07:00:40.448Z,58.93
2018-08-22T07:03:09.784Z,58.93
2018-08-22T07:05:39.095Z,58.65
2018-08-22T07:08:08.385Z,59.00
2018-08-22T07:10:37.680Z,58.28
2018-08-22T07:13:06.992Z,58.07
2018-08-22T07:15:36.278Z,57.44
2018-08-22T07:18:05.865Z,57.92
2018-08-22T07:20:35.181Z,57.09
2018-08-22T07:23:04.582Z,56.45
2018-08-22T07:25:33.909Z,55.80
2018-08-22T07:28:03.193Z,55.73
2018-08-22T07:30:32.494Z,55.19
2018-08-22T07:33:01.879Z,54.90
2018-08-22T07:35:31.261Z,53.56
2018-08-22T07:38:00.588Z,53.33
2018-08-22T07:40:29.879Z,53.32
2018-08-22T07:43:00.577Z,52.71
2018-08-22T07:45:29.841Z,52.78
2018-08-22T07:47:59.255Z,51.92
2018-08-22T07:50:28.541Z,51.80
2018-08-22T07:53:04.874Z,51.47
2018-08-22T07:55:39.943Z,50.06
2018-08-22T07:58:09.246Z,51.68
2018-08-22T08:00:38.618Z,50.54
2018-08-22T08:03:07.981Z,49.86
2018-08-22T08:05:37.384Z,49.47
2018-08-22T08:08:06.747Z,48.67
2018-08-22T08:10:37.350Z,49.65
2018-08-22T08:13:18.794Z,47.48
2018-08-22T08:15:48.152Z,47.95
2018-08-22T08:18:17.618Z,48.50
2018-08-22T08:20:46.903Z,48.58
2018-08-22T08:23:16.274Z,47.99
2018-08-22T08:25:45.602Z,47.23
2018-08-22T08:28:14.961Z,47.61
2018-08-22T08:30:44.258Z,46.71
2018-08-22T08:33:13.553Z,46.23
2018-08-22T08:35:42.866Z,47.04
2018-08-22T08:38:12.863Z,46.53
2018-08-22T08:40:42.156Z,46.70
2018-08-22T08:43:11.797Z,46.75
2018-08-22T08:45:41.309Z,45.91
2018-08-22T08:48:10.638Z,45.67
2018-08-22T08:50:40.282Z,45.67
2018-08-22T08:53:09.717Z,44.85
2018-08-22T08:55:39.035Z,44.84
2018-08-22T08:58:08.494Z,45.02
2018-08-22T09:00:37.954Z,45.13
2018-08-22T09:03:07.247Z,44.97
2018-08-22T09:05:36.774Z,44.15
2018-08-22T09:08:06.083Z,43.46
2018-08-22T09:10:35.505Z,43.85
2018-08-22T09:13:07.862Z,44.28
2018-08-22T09:15:37.312Z,43.48
2018-08-22T09:18:06.800Z,42.70
2018-08-22T09:20:36.255Z,43.78
2018-08-22T09:23:05.771Z,43.19
2018-08-22T09:25:34.950Z,43.23
2018-08-22T09:28:04.343Z,43.38
2018-08-22T09:30:33.703Z,43.54
2018-08-22T09:33:03.005Z,42.92
2018-08-22T09:35:32.441Z,41.80
2018-08-22T09:38:01.763Z,42.61
2018-08-22T09:40:31.106Z,42.54
2018-08-22T09:43:00.422Z,40.69
2018-08-22T09:45:29.778Z,40.99
2018-08-22T09:47:59.134Z,40.83
2018-08-22T09:50:28.427Z,41.13
2018-08-22T09:52:57.772Z,40.46
2018-08-22T09:55:27.061Z,40.85
2018-08-22T09:57:56.466Z,40.99
2018-08-22T10:00:30.936Z,40.26
2018-08-22T10:03:00.273Z,40.25
2018-08-22T10:05:29.546Z,40.46
2018-08-22T10:07:58.854Z,41.10
2018-08-22T10:10:28.211Z,40.28
2018-08-22T10:12:57.345Z,39.59
2018-08-22T10:15:26.727Z,39.69
2018-08-22T10:17:55.994Z,39.19
2018-08-22T10:20:25.263Z,39.00
2018-08-22T10:22:54.605Z,38.65
2018-08-22T10:25:23.955Z,38.57
2018-08-22T10:27:53.250Z,37.86
2018-08-22T10:30:22.584Z,39.25
2018-08-22T10:32:52.040Z,38.70
2018-08-22T10:35:21.269Z,39.36
2018-08-22T10:37:50.533Z,38.65
2018-08-22T10:40:19.847Z,38.31
2018-08-22T10:42:49.150Z,38.27
2018-08-22T10:45:18.694Z,38.23
2018-08-22T10:47:48.021Z,38.27
2018-08-22T10:50:17.342Z,38.55
2018-08-22T10:52:46.647Z,37.71
2018-08-22T10:55:15.983Z,38.87
2018-08-22T10:57:45.267Z,38.17
2018-08-22T11:00:14.671Z,37.72
2018-08-22T11:02:43.925Z,37.60
2018-08-22T11:05:13.381Z,37.23
2018-08-22T11:07:42.771Z,36.28
2018-08-22T11:10:12.154Z,36.77
2018-08-22T11:12:41.478Z,37.79
2018-08-22T11:15:10.817Z,38.75
2018-08-22T11:17:40.347Z,38.15
2018-08-22T11:20:09.672Z,37.26
2018-08-22T11:22:55.989Z,36.50
2018-08-22T11:25:36.346Z,36.85
2018-08-22T11:28:22.732Z,35.90
2018-08-22T11:31:09.133Z,37.70
2018-08-22T11:33:55.530Z,38.32
2018-08-22T11:36:23.295Z,38.15
2018-08-22T11:38:53.370Z,36.79
2018-08-22T11:41:22.727Z,37.66
2018-08-22T11:43:52.021Z,38.21
2018-08-22T11:46:21.724Z,37.35
2018-08-22T11:48:51.242Z,37.46
2018-08-22T11:51:20.750Z,35.86
2018-08-22T11:53:50.028Z,36.81
2018-08-22T11:56:19.511Z,37.94
2018-08-22T11:58:51.115Z,38.09
2018-08-22T12:01:20.395Z,38.33
2018-08-22T12:03:49.686Z,38.25
2018-08-22T12:06:19.091Z,37.99
2018-08-22T12:08:48.393Z,38.36
2018-08-22T12:11:17.855Z,38.20
2018-08-22T12:13:47.123Z,38.12
2018-08-22T12:16:16.550Z,38.25
2018-08-22T12:18:45.958Z,38.72
2018-08-22T12:21:15.209Z,38.65
2018-08-22T12:23:44.520Z,37.35
2018-08-22T12:26:13.934Z,37.18
2018-08-22T12:28:43.678Z,37.46
2018-08-22T12:31:13.180Z,37.98
2018-08-22T12:33:42.737Z,36.95
2018-08-22T12:36:12.016Z,38.17
2018-08-22T12:38:41.469Z,37.33
2018-08-22T12:41:10.804Z,37.01
2018-08-22T12:43:40.602Z,37.85
2018-08-22T12:46:10.053Z,37.08
2018-08-22T12:48:39.526Z,37.02
2018-08-22T12:51:08.966Z,36.11
2018-08-22T12:53:38.422Z,35.17
2018-08-22T12:56:07.852Z,34.03
2018-08-22T12:58:37.246Z,33.72
2018-08-22T13:01:06.885Z,33.60
2018-08-22T13:03:36.355Z,33.88
2018-08-22T13:06:06.075Z,33.29
2018-08-22T13:08:35.466Z,33.51
2018-08-22T13:11:05.017Z,32.95
2018-08-22T13:13:34.548Z,31.62
2018-08-22T13:16:04.654Z,31.87
2018-08-22T13:18:34.972Z,32.75
2018-08-22T13:21:04.388Z,32.71
2018-08-22T13:23:33.811Z,31.81
2018-08-22T13:26:04.346Z,31.96
2018-08-22T13:28:33.811Z,32.74
2018-08-22T13:31:03.685Z,32.07
2018-08-22T13:33:33.483Z,32.37
2018-08-22T13:36:03.052Z,31.82
2018-08-22T13:38:32.452Z,31.37
2018-08-22T13:41:08.784Z,30.75
2018-08-22T13:43:38.144Z,30.88
2018-08-22T13:46:07.716Z,31.00
2018-08-22T13:48:37.145Z,30.82
2018-08-22T13:51:06.905Z,31.23
2018-08-22T13:53:36.636Z,31.75
2018-08-22T13:56:06.415Z,32.39
2018-08-22T13:58:35.938Z,31.75
2018-08-22T14:01:05.788Z,31.57
2018-08-22T14:03:35.338Z,31.10
2018-08-22T14:06:04.863Z,31.63
2018-08-22T14:08:38.567Z,32.02
2018-08-22T14:11:08.022Z,32.25
2018-08-22T14:13:37.739Z,32.49
2018-08-22T14:16:07.287Z,32.75
2018-08-22T14:18:37.549Z,32.49
2018-08-22T14:21:07.064Z,32.59
2018-08-22T14:23:50.228Z,32.36
2018-08-22T14:26:19.850Z,32.65
2018-08-22T14:28:50.036Z,31.89
2018-08-22T14:31:19.359Z,32.31
2018-08-22T14:33:48.869Z,32.22
2018-08-22T14:36:19.279Z,32.08
2018-08-22T14:38:55.374Z,31.68
2018-08-22T14:41:24.800Z,31.27
2018-08-22T14:43:54.260Z,32.25
2018-08-22T14:46:23.809Z,32.47
2018-08-22T14:48:53.253Z,32.88
2018-08-22T14:51:22.589Z,33.27
2018-08-22T14:53:51.960Z,33.87
2018-08-22T14:56:21.390Z,34.22
2018-08-22T14:58:51.388Z,34.14
2018-08-22T15:01:20.811Z,33.76
2018-08-22T15:03:50.241Z,34.48
2018-08-22T15:06:19.842Z,34.36
2018-08-22T15:08:50.899Z,35.30
2018-08-22T15:11:20.260Z,34.92
2018-08-22T15:13:49.580Z,35.80
2018-08-22T15:16:19.076Z,35.87
2018-08-22T15:18:48.572Z,35.62
2018-08-22T15:21:17.940Z,36.20
2018-08-22T15:23:47.862Z,36.05
2018-08-22T15:26:17.192Z,35.92
2018-08-22T15:28:47.220Z,35.93
2018-08-22T15:31:16.610Z,36.04
2018-08-22T15:33:46.566Z,36.81
2018-08-22T15:36:16.648Z,36.15
2018-08-22T15:38:45.998Z,36.66
2018-08-22T15:41:15.487Z,37.02
2018-08-22T15:43:44.738Z,37.98
2018-08-22T15:46:14.227Z,41.80
2018-08-22T15:48:43.719Z,45.21
2018-08-22T15:51:13.209Z,46.91
2018-08-22T15:53:42.571Z,47.15
2018-08-22T15:56:12.065Z,48.31
2018-08-22T15:58:41.616Z,48.96
2018-08-22T16:01:11.052Z,49.90
2018-08-22T16:03:40.470Z,50.11
2018-08-22T16:06:09.963Z,50.16
2018-08-22T16:08:39.481Z,50.03
2018-08-22T16:11:08.816Z,49.60
2018-08-22T16:13:39.244Z,50.18
2018-08-22T16:16:08.789Z,50.91
2018-08-22T16:18:38.259Z,51.43
2018-08-22T16:21:08.140Z,52.27
2018-08-22T16:23:37.957Z,53.58
2018-08-22T16:26:07.248Z,54.49
2018-08-22T16:28:51.393Z,56.37
2018-08-22T16:31:21.651Z,54.87
2018-08-22T16:33:51.141Z,56.58
2018-08-22T16:36:25.664Z,55.81
2018-08-22T16:38:55.229Z,56.66
2018-08-22T16:41:24.634Z,56.63
2018-08-22T16:43:54.021Z,56.26
2018-08-22T16:46:23.121Z,56.56
2018-08-22T16:48:54.130Z,56.11
2018-08-22T16:51:24.067Z,55.66
2018-08-22T16:54:01.097Z,54.48
2018-08-22T16:56:32.211Z,54.49
2018-08-22T16:59:07.054Z,53.70
2018-08-22T17:01:37.376Z,51.51
2018-08-22T17:04:07.563Z,50.06
2018-08-22T17:06:36.974Z,49.90
2018-08-22T17:09:09.453Z,49.74
2018-08-22T17:11:38.766Z,45.82
2018-08-22T17:14:08.303Z,43.76
2018-08-22T17:16:37.684Z,42.76
2018-08-22T17:19:07.212Z,41.79
2018-08-22T17:21:37.196Z,40.91
2018-08-22T17:24:06.984Z,41.23
2018-08-22T17:26:37.228Z,40.98
2018-08-22T17:29:08.053Z,42.37
2018-08-22T17:31:44.467Z,41.72
2018-08-22T17:34:14.079Z,40.97
2018-08-22T17:36:52.231Z,41.46
2018-08-22T17:39:22.093Z,40.79
2018-08-22T17:41:55.618Z,41.52
2018-08-22T17:44:25.256Z,41.75
2018-08-22T17:46:55.201Z,42.18
2018-08-22T17:49:24.765Z,42.38
2018-08-22T17:52:06.736Z,43.65
2018-08-22T17:54:36.642Z,46.58
2018-08-22T17:57:24.469Z,47.78
2018-08-22T17:59:56.970Z,49.35
2018-08-22T18:02:26.536Z,49.82
2018-08-22T18:05:03.967Z,50.67
2018-08-22T18:07:33.701Z,52.14
2018-08-22T18:10:04.970Z,52.78
2018-08-22T18:12:34.792Z,53.39
2018-08-22T18:15:04.875Z,54.19
2018-08-22T18:17:35.654Z,55.01
2018-08-22T18:20:05.445Z,55.40
2018-08-22T18:22:36.637Z,56.29
2018-08-22T18:25:07.083Z,58.91
2018-08-22T18:27:36.749Z,60.09
2018-08-22T18:30:09.867Z,60.66
2018-08-22T18:32:39.525Z,61.35
2018-08-22T18:35:10.970Z,61.79
2018-08-22T18:37:41.325Z,62.75
2018-08-22T18:40:29.596Z,63.48
2018-08-22T18:43:06.291Z,63.60
2018-08-22T18:45:37.955Z,63.48
2018-08-22T18:48:07.469Z,63.44
2018-08-22T18:50:37.114Z,63.69
2018-08-22T18:53:07.129Z,63.92
2018-08-22T18:55:36.841Z,64.08
2018-08-22T18:58:07.018Z,64.77
2018-08-22T19:00:38.373Z,64.68
2018-08-22T19:03:07.990Z,64.55
2018-08-22T19:05:39.314Z,64.78
2018-08-22T19:08:17.061Z,64.63
2018-08-22T19:10:50.030Z,64.35
2018-08-22T19:13:22.181Z,64.42
2018-08-22T19:16:01.572Z,64.48
2018-08-22T19:18:31.960Z,64.37
2018-08-22T19:21:02.978Z,65.13
2018-08-22T19:23:33.348Z,65.22
2018-08-22T19:26:04.071Z,65.71
2018-08-22T19:29:01.981Z,65.85
2018-08-22T19:31:32.012Z,66.83
2018-08-22T19:34:01.571Z,65.91
2018-08-22T19:36:31.120Z,65.58
2018-08-22T19:39:00.815Z,66.12
2018-08-22T19:41:33.654Z,65.39
2018-08-22T19:44:03.311Z,66.28
2018-08-22T19:46:32.869Z,65.76
2018-08-22T19:49:33.290Z,65.84
2018-08-22T19:52:02.834Z,65.53
2018-08-22T19:54:32.436Z,65.91
2018-08-22T19:57:01.926Z,66.29
2018-08-22T19:59:31.469Z,66.79
2018-08-22T20:02:03.191Z,66.94
2018-08-22T20:04:34.554Z,67.21
2018-08-22T20:07:03.961Z,67.70
2018-08-22T20:09:33.685Z,68.25
2018-08-22T20:12:03.104Z,68.67
2018-08-22T20:14:32.574Z,68.53
2018-08-22T20:17:02.209Z,69.16
2018-08-22T20:19:35.929Z,69.94
2018-08-22T20:22:06.026Z,70.28
2018-08-22T20:24:35.602Z,70.42
2018-08-22T20:27:05.424Z,70.92
2018-08-22T20:29:35.066Z,70.88
2018-08-22T20:32:04.572Z,71.04
2018-08-22T20:34:34.721Z,71.09
2018-08-22T20:37:04.126Z,70.68
2018-08-22T20:39:33.695Z,71.38
2018-08-22T20:42:08.343Z,71.42
2018-08-22T20:44:40.073Z,71.60
2018-08-22T20:47:09.410Z,71.76
2018-08-22T20:49:38.888Z,71.14
2018-08-22T20:52:08.277Z,71.73
2018-08-22T20:54:37.716Z,71.46
2018-08-22T20:57:07.087Z,70.40
2018-08-22T20:59:36.422Z,70.35
2018-08-22T21:02:06.616Z,70.54
2018-08-22T21:04:36.593Z,70.07
2018-08-22T21:07:06.410Z,70.25
2018-08-22T21:09:35.785Z,70.11
2018-08-22T21:12:05.258Z,70.53
2018-08-22T21:14:34.629Z,70.72
2018-08-22T21:17:04.126Z,70.15
2018-08-22T21:19:33.540Z,70.61
2018-08-22T21:22:08.661Z,70.58
2018-08-22T21:24:38.153Z,70.70
2018-08-22T21:27:07.459Z,71.04
2018-08-22T21:29:36.762Z,71.33
2018-08-22T21:32:06.735Z,71.96
2018-08-22T21:34:36.238Z,71.69
2018-08-22T21:37:21.487Z,72.08
2018-08-22T21:39:50.854Z,71.86
2018-08-22T21:42:29.212Z,72.16
2018-08-22T21:44:58.631Z,71.92
2018-08-22T21:47:27.978Z,72.17
2018-08-22T21:49:57.394Z,71.81
2018-08-22T21:52:27.970Z,72.41
2018-08-22T21:54:57.309Z,72.69
2018-08-22T21:57:26.543Z,72.69
2018-08-22T22:00:01.671Z,73.04
2018-08-22T22:02:30.936Z,72.83
2018-08-22T22:05:00.311Z,73.85
2018-08-22T22:07:29.617Z,74.05
2018-08-22T22:10:04.078Z,73.88
2018-08-22T22:12:37.289Z,74.83
2018-08-22T22:15:06.960Z,75.09
2018-08-22T22:17:36.364Z,74.59
2018-08-22T22:20:05.872Z,75.14
2018-08-22T22:22:35.217Z,75.26
2018-08-22T22:25:06.083Z,76.14
2018-08-22T22:27:36.455Z,75.85
2018-08-22T22:30:06.897Z,75.96
2018-08-22T22:32:36.195Z,76.43
2018-08-22T22:35:05.862Z,76.23
2018-08-22T22:37:35.111Z,76.30
2018-08-22T22:40:05.263Z,76.34
2018-08-22T22:42:34.564Z,76.10
2018-08-22T22:45:03.999Z,76.13
2018-08-22T22:47:34.314Z,76.27
2018-08-22T22:50:04.616Z,75.76
2018-08-22T22:52:38.347Z,76.64
2018-08-22T22:55:08.911Z,77.25
2018-08-22T22:57:39.461Z,77.60
2018-08-22T23:00:11.565Z,77.56
2018-08-22T23:02:40.947Z,77.94
2018-08-22T23:05:10.498Z,77.83
2018-08-22T23:07:42.801Z,77.82
2018-08-22T23:10:14.051Z,77.65
2018-08-22T23:12:44.590Z,78.13
2018-08-22T23:15:22.286Z,77.84
2018-08-22T23:17:52.986Z,78.20
2018-08-22T23:20:33.390Z,78.34
2018-08-22T23:23:03.018Z,77.77
2018-08-22T23:25:32.312Z,78.53
2018-08-22T23:28:01.621Z,78.82
2018-08-22T23:30:35.066Z,78.63
2018-08-22T23:33:04.482Z,79.04
2018-08-22T23:35:34.861Z,79.10
2018-08-22T23:38:05.241Z,79.05
2018-08-22T23:40:35.385Z,79.85
2018-08-22T23:43:04.635Z,80.18
2018-08-22T23:45:37.337Z,79.58
2018-08-22T23:48:07.170Z,80.19
2018-08-22T23:50:58.129Z,80.39
2018-08-22T23:53:31.133Z,80.67
2018-08-22T23:56:17.297Z,80.70
2018-08-22T23:58:47.374Z,81.84
